createdAt,value
2019-03-23T00:01:19.204Z,18.97
2019-03-23T00:03:47.830Z,17.00
2019-03-23T00:06:16.251Z,17.17
2019-03-23T00:08:44.723Z,16.40
2019-03-23T00:11:13.130Z,16.87
2019-03-23T00:13:41.634Z,16.47
2019-03-23T00:16:10.065Z,17.17
2019-03-23T00:18:38.455Z,17.40
2019-03-23T00:21:06.850Z,15.50
2019-03-23T00:23:35.290Z,15.90
2019-03-23T00:26:03.695Z,15.87
2019-03-23T00:28:32.095Z,15.03
2019-03-23T00:31:00.790Z,15.87
2019-03-23T00:33:29.230Z,13.90
2019-03-23T00:35:57.715Z,14.83
2019-03-23T00:38:26.162Z,14.93
2019-03-23T00:40:54.562Z,14.53
2019-03-23T00:43:23.079Z,15.50
2019-03-23T00:45:51.491Z,14.67
2019-03-23T00:48:19.887Z,16.13
2019-03-23T00:50:48.296Z,15.93
2019-03-23T00:53:17.052Z,15.93
2019-03-23T00:55:45.550Z,16.30
2019-03-23T00:58:13.966Z,15.23
2019-03-23T01:00:42.430Z,16.53
2019-03-23T01:03:10.850Z,15.13
2019-03-23T01:05:39.695Z,15.40
2019-03-23T01:08:08.132Z,15.77
2019-03-23T01:10:36.806Z,15.73
2019-03-23T01:13:05.284Z,15.63
2019-03-23T01:15:33.791Z,15.00
2019-03-23T01:18:02.256Z,15.13
2019-03-23T01:20:30.670Z,16.43
2019-03-23T01:22:59.234Z,14.80
2019-03-23T01:25:27.633Z,15.00
2019-03-23T01:27:56.378Z,15.90
2019-03-23T01:30:24.778Z,14.77
2019-03-23T01:32:53.489Z,16.00
2019-03-23T01:35:21.943Z,14.60
2019-03-23T01:37:50.343Z,14.20
2019-03-23T01:40:19.025Z,16.03
2019-03-23T01:42:47.415Z,15.60
2019-03-23T01:45:16.083Z,13.93
2019-03-23T01:47:44.496Z,14.83
2019-03-23T01:50:13.072Z,13.97
2019-03-23T01:52:41.487Z,14.70
2019-03-23T01:55:10.387Z,14.30
2019-03-23T01:57:38.786Z,15.87
2019-03-23T02:00:28.152Z,15.30
2019-03-23T02:02:56.551Z,14.77
2019-03-23T02:05:25.118Z,15.63
2019-03-23T02:07:53.531Z,15.43
2019-03-23T02:10:21.948Z,15.80
2019-03-23T02:12:50.345Z,16.00
2019-03-23T02:15:18.742Z,15.80
2019-03-23T02:17:47.143Z,15.53
2019-03-23T02:20:15.915Z,17.60
2019-03-23T02:22:44.302Z,15.63
2019-03-23T02:25:13.042Z,15.87
2019-03-23T02:27:41.506Z,16.27
2019-03-23T02:30:11.477Z,15.57
2019-03-23T02:32:39.882Z,16.30
2019-03-23T02:35:09.208Z,16.03
2019-03-23T02:37:37.688Z,16.33
2019-03-23T02:40:07.733Z,16.53
2019-03-23T02:42:36.134Z,15.17
2019-03-23T02:45:09.629Z,14.37
2019-03-23T02:47:38.017Z,15.53
2019-03-23T02:50:07.770Z,15.33
2019-03-23T02:52:36.707Z,15.40
2019-03-23T02:55:08.654Z,15.33
2019-03-23T02:57:37.052Z,15.37
2019-03-23T03:00:11.207Z,15.40
2019-03-23T03:02:39.609Z,16.20
2019-03-23T03:05:09.181Z,15.13
2019-03-23T03:07:42.545Z,14.73
2019-03-23T03:10:10.476Z,15.87
2019-03-23T03:12:38.941Z,14.77
2019-03-23T03:15:08.172Z,15.67
2019-03-23T03:17:36.685Z,15.03
2019-03-23T03:20:07.667Z,14.87
2019-03-23T03:22:36.061Z,16.60
2019-03-23T03:25:06.515Z,14.60
2019-03-23T03:27:34.918Z,14.60
2019-03-23T03:30:03.786Z,15.30
2019-03-23T03:32:32.205Z,15.53
2019-03-23T03:35:00.780Z,16.13
2019-03-23T03:37:29.291Z,16.57
2019-03-23T03:39:57.699Z,16.87
2019-03-23T03:42:26.118Z,15.97
2019-03-23T03:44:54.535Z,15.60
2019-03-23T03:47:22.988Z,15.80
2019-03-23T03:49:51.639Z,16.57
2019-03-23T03:52:20.106Z,15.90
2019-03-23T03:54:48.508Z,16.13
2019-03-23T03:57:16.920Z,15.07
2019-03-23T03:59:45.319Z,16.73
2019-03-23T04:02:14.185Z,15.97
2019-03-23T04:04:42.582Z,16.27
2019-03-23T04:07:10.996Z,16.57
2019-03-23T04:09:40.505Z,16.40
2019-03-23T04:12:09.067Z,16.47
2019-03-23T04:14:37.470Z,16.03
2019-03-23T04:17:06.119Z,16.33
2019-03-23T04:19:34.524Z,16.73
2019-03-23T04:22:03.006Z,16.33
2019-03-23T04:24:31.507Z,15.27
2019-03-23T04:27:01.619Z,15.43
2019-03-23T04:29:30.020Z,15.67
2019-03-23T04:31:58.441Z,15.77
2019-03-23T04:34:26.881Z,16.80
2019-03-23T04:36:55.424Z,16.40
2019-03-23T04:39:24.016Z,16.17
2019-03-23T04:41:52.422Z,16.83
2019-03-23T04:44:20.819Z,14.97
2019-03-23T04:46:49.259Z,16.43
2019-03-23T04:49:17.729Z,15.67
2019-03-23T04:51:46.149Z,14.97
2019-03-23T04:54:14.808Z,14.23
2019-03-23T04:56:43.206Z,14.47
2019-03-23T04:59:11.606Z,14.40
2019-03-23T05:01:40.424Z,15.63
2019-03-23T05:04:09.741Z,14.33
2019-03-23T05:06:38.179Z,15.40
2019-03-23T05:09:08.610Z,16.03
2019-03-23T05:11:37.020Z,15.83
2019-03-23T05:14:05.432Z,14.80
2019-03-23T05:16:33.907Z,15.77
2019-03-23T05:19:02.309Z,15.17
2019-03-23T05:21:30.748Z,15.23
2019-03-23T05:23:59.147Z,15.20
2019-03-23T05:26:27.611Z,17.20
2019-03-23T05:28:56.014Z,17.53
2019-03-23T05:31:24.415Z,16.97
2019-03-23T05:33:53.061Z,16.90
2019-03-23T05:36:21.458Z,16.90
2019-03-23T05:38:50.104Z,16.57
2019-03-23T05:41:18.722Z,17.17
2019-03-23T05:43:47.184Z,15.37
2019-03-23T05:46:15.588Z,16.57
2019-03-23T05:48:44.004Z,17.20
2019-03-23T05:51:12.406Z,15.43
2019-03-23T05:53:41.110Z,15.10
2019-03-23T05:56:09.515Z,17.63
2019-03-23T05:58:37.963Z,17.73
2019-03-23T06:01:06.807Z,16.47
2019-03-23T06:03:35.219Z,16.97
2019-03-23T06:06:03.966Z,19.60
2019-03-23T06:08:32.365Z,16.80
2019-03-23T06:11:00.857Z,20.13
2019-03-23T06:13:29.251Z,19.27
2019-03-23T06:15:57.666Z,18.83
2019-03-23T06:18:26.067Z,19.00
2019-03-23T06:20:54.470Z,18.60
2019-03-23T06:23:22.991Z,20.97
2019-03-23T06:25:51.388Z,20.20
2019-03-23T06:28:19.834Z,20.07
2019-03-23T06:30:48.558Z,20.30
2019-03-23T06:33:16.959Z,19.97
2019-03-23T06:35:45.364Z,21.27
2019-03-23T06:38:16.210Z,20.30
2019-03-23T06:40:44.232Z,20.90
2019-03-23T06:43:12.711Z,18.80
2019-03-23T06:45:41.127Z,20.13
2019-03-23T06:48:09.541Z,18.17
2019-03-23T06:50:37.958Z,17.33
2019-03-23T06:53:06.371Z,16.70
2019-03-23T06:55:34.880Z,16.63
2019-03-23T06:58:03.285Z,16.50
2019-03-23T07:00:31.871Z,15.67
2019-03-23T07:03:00.271Z,15.70
2019-03-23T07:05:28.740Z,15.97
2019-03-23T07:08:16.562Z,15.20
2019-03-23T07:10:44.963Z,14.27
2019-03-23T07:13:13.413Z,15.23
2019-03-23T07:15:41.815Z,14.77
2019-03-23T07:18:10.223Z,14.53
2019-03-23T07:20:38.626Z,15.17
2019-03-23T07:23:07.413Z,15.33
2019-03-23T07:25:35.810Z,14.17
2019-03-23T07:28:04.266Z,12.97
2019-03-23T07:30:32.679Z,13.53
2019-03-23T07:33:01.111Z,13.47
2019-03-23T07:35:29.531Z,14.20
2019-03-23T07:37:57.932Z,14.03
2019-03-23T07:40:26.418Z,12.93
2019-03-23T07:42:54.827Z,14.47
2019-03-23T07:45:23.299Z,13.00
2019-03-23T07:47:51.694Z,13.30
2019-03-23T07:50:20.135Z,13.57
2019-03-23T07:52:48.564Z,13.43
2019-03-23T07:55:17.422Z,14.00
2019-03-23T07:57:45.835Z,14.07
2019-03-23T08:00:20.232Z,12.47
2019-03-23T08:02:48.754Z,13.33
2019-03-23T08:05:17.226Z,12.73
2019-03-23T08:07:45.700Z,13.70
2019-03-23T08:10:33.302Z,12.50
2019-03-23T08:13:01.845Z,13.40
2019-03-23T08:15:30.784Z,12.40
2019-03-23T08:17:59.824Z,13.07
2019-03-23T08:20:28.366Z,14.00
2019-03-23T08:22:56.775Z,14.10
2019-03-23T08:25:25.240Z,12.23
2019-03-23T08:27:53.733Z,12.73
2019-03-23T08:30:22.149Z,13.57
2019-03-23T08:32:50.617Z,13.13
2019-03-23T08:35:19.054Z,14.03
2019-03-23T08:37:47.553Z,12.97
2019-03-23T08:40:16.244Z,12.60
2019-03-23T08:42:44.649Z,13.00
2019-03-23T08:45:13.318Z,13.93
2019-03-23T08:47:41.770Z,13.80
2019-03-23T08:50:10.419Z,13.20
2019-03-23T08:52:38.882Z,13.47
2019-03-23T08:55:07.370Z,14.20
2019-03-23T08:57:35.811Z,14.03
2019-03-23T09:00:06.944Z,14.07
2019-03-23T09:02:35.906Z,13.70
2019-03-23T09:05:05.860Z,14.40
2019-03-23T09:07:34.385Z,15.00
2019-03-23T09:10:03.950Z,14.37
2019-03-23T09:12:32.376Z,14.30
2019-03-23T09:15:00.898Z,14.93
2019-03-23T09:17:29.331Z,14.37
2019-03-23T09:19:57.730Z,15.67
2019-03-23T09:22:26.126Z,23.97
2019-03-23T09:24:57.132Z,15.97
2019-03-23T09:27:24.686Z,16.27
2019-03-23T09:29:53.101Z,15.27
2019-03-23T09:32:21.718Z,16.03
2019-03-23T09:34:50.313Z,14.10
2019-03-23T09:37:18.847Z,16.50
2019-03-23T09:39:47.294Z,20.37
2019-03-23T09:42:15.762Z,16.50
2019-03-23T09:44:44.195Z,15.70
2019-03-23T09:47:12.610Z,16.77
2019-03-23T09:49:41.062Z,14.77
2019-03-23T09:52:09.466Z,16.23
2019-03-23T09:54:38.367Z,15.87
2019-03-23T09:57:06.766Z,14.77
2019-03-23T09:59:35.235Z,16.13
2019-03-23T10:02:03.833Z,15.83
2019-03-23T10:04:32.322Z,17.90
2019-03-23T10:07:00.746Z,17.43
2019-03-23T10:09:29.310Z,16.13
2019-03-23T10:11:59.261Z,17.00
2019-03-23T10:14:27.784Z,16.30
2019-03-23T10:16:56.200Z,17.87
2019-03-23T10:19:24.970Z,16.30
2019-03-23T10:21:53.367Z,17.03
2019-03-23T10:24:21.786Z,16.67
2019-03-23T10:26:52.118Z,15.87
2019-03-23T10:29:20.345Z,17.10
2019-03-23T10:31:48.758Z,16.23
2019-03-23T10:34:17.161Z,16.60
2019-03-23T10:36:45.582Z,17.80
2019-03-23T10:39:14.068Z,18.40
2019-03-23T10:41:42.481Z,17.33
2019-03-23T10:44:11.042Z,18.00
2019-03-23T10:46:39.530Z,57.33
2019-03-23T10:49:08.191Z,16.70
2019-03-23T10:51:36.588Z,16.60
2019-03-23T10:54:05.090Z,16.27
2019-03-23T10:56:33.499Z,16.53
2019-03-23T10:59:01.909Z,17.80
2019-03-23T11:01:30.437Z,16.97
2019-03-23T11:03:58.807Z,16.93
2019-03-23T11:06:27.210Z,16.80
2019-03-23T11:08:55.621Z,15.70
2019-03-23T11:11:24.027Z,17.10
2019-03-23T11:13:52.506Z,17.20
2019-03-23T11:16:21.010Z,15.37
2019-03-23T11:18:49.452Z,15.80
2019-03-23T11:21:17.850Z,17.30
2019-03-23T11:23:46.262Z,17.47
2019-03-23T11:26:14.680Z,16.60
2019-03-23T11:28:43.146Z,16.90
2019-03-23T11:31:11.662Z,16.70
2019-03-23T11:33:40.130Z,17.43
2019-03-23T11:36:08.523Z,15.60
2019-03-23T11:38:37.011Z,17.87
2019-03-23T11:41:05.415Z,17.80
2019-03-23T11:43:34.864Z,17.47
2019-03-23T11:46:03.227Z,16.93
2019-03-23T11:48:31.640Z,16.13
2019-03-23T11:51:00.052Z,16.17
2019-03-23T11:53:28.445Z,16.20
2019-03-23T11:55:56.908Z,16.23
2019-03-23T11:58:26.231Z,17.67
2019-03-23T12:00:54.665Z,16.63
2019-03-23T12:03:23.235Z,15.17
2019-03-23T12:05:51.651Z,16.17
2019-03-23T12:08:20.084Z,16.30
2019-03-23T12:10:48.492Z,16.53
2019-03-23T12:13:17.012Z,15.93
2019-03-23T12:15:45.558Z,15.93
2019-03-23T12:18:13.985Z,16.47
2019-03-23T12:20:42.423Z,17.27
2019-03-23T12:23:10.929Z,15.33
2019-03-23T12:25:39.431Z,15.93
2019-03-23T12:28:07.823Z,16.17
2019-03-23T12:30:36.243Z,15.83
2019-03-23T12:33:04.745Z,17.07
2019-03-23T12:35:33.466Z,15.50
2019-03-23T12:38:01.872Z,17.33
2019-03-23T12:40:30.281Z,15.60
2019-03-23T12:42:59.220Z,16.67
2019-03-23T12:45:27.624Z,16.13
2019-03-23T12:47:56.792Z,16.53
2019-03-23T12:50:25.228Z,16.20
2019-03-23T12:52:53.606Z,15.17
2019-03-23T12:55:22.063Z,15.80
2019-03-23T12:57:50.871Z,16.57
2019-03-23T13:00:19.716Z,16.40
2019-03-23T13:02:48.120Z,15.43
2019-03-23T13:05:16.534Z,15.80
2019-03-23T13:07:45.022Z,16.27
2019-03-23T13:10:14.381Z,16.70
2019-03-23T13:12:42.780Z,15.73
2019-03-23T13:15:13.702Z,17.17
2019-03-23T13:17:42.199Z,16.07
2019-03-23T13:20:11.518Z,17.67
2019-03-23T13:22:40.066Z,17.63
2019-03-23T13:25:09.228Z,16.37
2019-03-23T13:27:57.057Z,16.00
2019-03-23T13:30:25.458Z,17.07
2019-03-23T13:32:53.983Z,16.10
2019-03-23T13:35:22.451Z,18.67
2019-03-23T13:37:50.878Z,17.57
2019-03-23T13:40:19.279Z,16.43
2019-03-23T13:42:47.753Z,16.80
2019-03-23T13:45:16.739Z,15.27
2019-03-23T13:47:45.182Z,16.00
2019-03-23T13:50:15.680Z,17.57
2019-03-23T13:52:44.163Z,16.17
2019-03-23T13:55:46.328Z,16.33
2019-03-23T13:58:15.404Z,16.50
2019-03-23T14:00:43.842Z,16.23
2019-03-23T14:03:12.499Z,17.17
2019-03-23T14:05:40.988Z,16.60
2019-03-23T14:08:09.411Z,17.20
2019-03-23T14:10:37.895Z,18.07
2019-03-23T14:13:06.409Z,17.17
2019-03-23T14:15:34.847Z,16.43
2019-03-23T14:18:03.248Z,17.27
2019-03-23T14:20:31.854Z,16.63
2019-03-23T14:23:02.916Z,16.63
2019-03-23T14:25:30.398Z,16.80
2019-03-23T14:27:58.798Z,17.40
2019-03-23T14:30:27.219Z,17.80
2019-03-23T14:32:55.627Z,16.67
2019-03-23T14:35:24.044Z,17.30
2019-03-23T14:37:52.746Z,16.37
2019-03-23T14:40:41.431Z,17.03
2019-03-23T14:43:09.947Z,16.10
2019-03-23T14:45:38.370Z,16.83
2019-03-23T14:48:06.781Z,16.87
2019-03-23T14:50:35.281Z,17.00
2019-03-23T14:53:03.693Z,19.30
2019-03-23T14:55:32.123Z,16.50
2019-03-23T14:58:01.490Z,17.83
2019-03-23T15:00:31.544Z,17.60
2019-03-23T15:02:59.959Z,18.20
2019-03-23T15:05:29.669Z,18.13
2019-03-23T15:07:58.068Z,17.00
2019-03-23T15:10:26.470Z,18.27
2019-03-23T15:12:54.891Z,18.00
2019-03-23T15:15:23.313Z,18.13
2019-03-23T15:17:51.866Z,17.43
2019-03-23T15:20:20.378Z,18.17
2019-03-23T15:22:48.999Z,17.93
2019-03-23T15:25:17.417Z,19.07
2019-03-23T15:27:46.106Z,18.67
2019-03-23T15:30:14.661Z,17.97
2019-03-23T15:32:43.060Z,18.33
2019-03-23T15:35:30.832Z,18.67
2019-03-23T15:37:59.225Z,18.47
2019-03-23T15:40:27.635Z,18.57
2019-03-23T15:42:56.075Z,18.80
2019-03-23T15:45:25.047Z,18.00
2019-03-23T15:47:53.450Z,18.00
2019-03-23T15:50:21.893Z,17.27
2019-03-23T15:52:50.290Z,19.37
2019-03-23T15:55:18.710Z,17.70
2019-03-23T15:57:47.144Z,18.43
2019-03-23T16:00:15.638Z,18.80
2019-03-23T16:02:44.072Z,17.73
2019-03-23T16:05:12.581Z,17.03
2019-03-23T16:07:41.498Z,18.30
2019-03-23T16:10:10.242Z,17.67
2019-03-23T16:12:38.657Z,17.53
2019-03-23T16:15:09.905Z,19.33
2019-03-23T16:17:39.625Z,17.00
2019-03-23T16:20:12.200Z,18.77
2019-03-23T16:22:41.047Z,18.93
2019-03-23T16:25:10.161Z,18.80
2019-03-23T16:27:38.575Z,17.63
2019-03-23T16:30:09.391Z,19.37
2019-03-23T16:32:37.801Z,18.13
2019-03-23T16:35:07.144Z,17.73
2019-03-23T16:37:35.649Z,18.67
2019-03-23T16:40:06.642Z,18.67
2019-03-23T16:42:44.545Z,17.43
2019-03-23T16:45:08.621Z,17.37
2019-03-23T16:47:37.247Z,18.20
2019-03-23T16:50:08.287Z,18.20
2019-03-23T16:52:38.119Z,17.80
2019-03-23T16:55:10.169Z,17.33
2019-03-23T16:57:38.567Z,17.90
2019-03-23T17:00:09.367Z,18.90
2019-03-23T17:02:37.854Z,18.13
2019-03-23T17:05:06.813Z,16.70
2019-03-23T17:07:36.473Z,18.03
2019-03-23T17:10:06.418Z,17.77
2019-03-23T17:12:34.929Z,18.73
2019-03-23T17:15:05.389Z,18.63
2019-03-23T17:17:33.808Z,18.90
2019-03-23T17:20:02.250Z,18.77
2019-03-23T17:22:30.683Z,19.67
2019-03-23T17:24:59.250Z,18.43
2019-03-23T17:27:28.130Z,19.03
2019-03-23T17:29:56.550Z,18.00
2019-03-23T17:32:25.028Z,18.70
2019-03-23T17:34:53.534Z,18.67
2019-03-23T17:37:21.938Z,20.13
2019-03-23T17:39:50.361Z,18.77
2019-03-23T17:42:18.766Z,19.63
2019-03-23T17:44:47.200Z,20.93
2019-03-23T17:47:15.711Z,19.80
2019-03-23T17:49:44.111Z,20.07
2019-03-23T17:52:12.522Z,20.60
2019-03-23T17:54:40.938Z,18.50
2019-03-23T17:57:09.364Z,19.70
2019-03-23T17:59:37.745Z,19.10
2019-03-23T18:02:06.518Z,20.30
2019-03-23T18:04:34.917Z,19.50
2019-03-23T18:07:03.317Z,18.77
2019-03-23T18:09:31.818Z,19.43
2019-03-23T18:12:00.218Z,19.33
2019-03-23T18:14:28.625Z,20.53
2019-03-23T18:16:57.065Z,20.03
2019-03-23T18:19:25.486Z,19.87
2019-03-23T18:21:53.905Z,20.03
2019-03-23T18:24:22.299Z,20.63
2019-03-23T18:26:50.726Z,20.23
2019-03-23T18:29:19.117Z,20.93
2019-03-23T18:31:47.912Z,20.67
2019-03-23T18:34:16.322Z,20.60
2019-03-23T18:36:45.000Z,19.17
2019-03-23T18:39:14.938Z,18.97
2019-03-23T18:41:43.350Z,20.63
2019-03-23T18:44:16.136Z,19.50
2019-03-23T18:46:42.122Z,21.00
2019-03-23T18:49:10.545Z,19.63
2019-03-23T18:51:38.963Z,20.87
2019-03-23T18:54:07.401Z,20.23
2019-03-23T18:56:35.802Z,21.07
2019-03-23T18:59:04.194Z,19.67
2019-03-23T19:01:39.131Z,19.67
2019-03-23T19:04:07.536Z,21.93
2019-03-23T19:06:35.958Z,20.27
2019-03-23T19:09:06.766Z,21.57
2019-03-23T19:11:35.202Z,20.63
2019-03-23T19:14:03.768Z,20.43
2019-03-23T19:16:32.196Z,23.83
2019-03-23T19:19:00.660Z,23.40
2019-03-23T19:21:29.054Z,22.40
2019-03-23T19:23:57.478Z,20.37
2019-03-23T19:26:25.887Z,22.87
2019-03-23T19:28:54.298Z,22.97
2019-03-23T19:31:23.670Z,21.97
2019-03-23T19:33:52.235Z,21.77
2019-03-23T19:36:20.640Z,21.00
2019-03-23T19:38:49.095Z,22.63
2019-03-23T19:41:17.592Z,21.30
2019-03-23T19:43:49.712Z,23.20
2019-03-23T19:46:16.052Z,24.17
2019-03-23T19:48:44.485Z,23.23
2019-03-23T19:51:12.894Z,22.53
2019-03-23T19:53:41.292Z,22.57
2019-03-23T19:56:09.986Z,23.97
2019-03-23T19:58:38.387Z,21.87
2019-03-23T20:01:06.791Z,23.33
2019-03-23T20:03:35.204Z,22.67
2019-03-23T20:06:03.631Z,22.73
2019-03-23T20:08:32.098Z,22.67
2019-03-23T20:11:00.481Z,22.13
2019-03-23T20:13:29.378Z,22.80
2019-03-23T20:15:57.807Z,22.03
2019-03-23T20:18:26.286Z,22.97
2019-03-23T20:21:08.077Z,22.73
2019-03-23T20:23:36.708Z,23.83
2019-03-23T20:26:05.140Z,23.60
2019-03-23T20:28:33.603Z,22.70
2019-03-23T20:31:02.067Z,23.17
2019-03-23T20:33:30.450Z,25.67
2019-03-23T20:35:59.779Z,22.50
2019-03-23T20:38:35.898Z,22.57
2019-03-23T20:41:04.328Z,22.73
2019-03-23T20:43:32.757Z,23.00
2019-03-23T20:46:01.625Z,23.87
2019-03-23T20:48:30.144Z,22.43
2019-03-23T20:50:58.531Z,23.97
2019-03-23T20:53:27.179Z,24.40
2019-03-23T20:55:55.577Z,24.03
2019-03-23T20:58:23.994Z,24.83
2019-03-23T21:00:52.415Z,23.50
2019-03-23T21:03:20.822Z,24.00
2019-03-23T21:05:49.244Z,24.90
2019-03-23T21:08:17.937Z,22.63
2019-03-23T21:10:46.377Z,23.80
2019-03-23T21:13:15.020Z,24.17
2019-03-23T21:15:43.483Z,25.20
2019-03-23T21:18:11.887Z,24.73
2019-03-23T21:20:40.296Z,23.40
2019-03-23T21:23:08.959Z,25.20
2019-03-23T21:25:37.422Z,24.40
2019-03-23T21:28:05.810Z,23.90
2019-03-23T21:30:34.220Z,25.13
2019-03-23T21:33:02.666Z,26.03
2019-03-23T21:35:31.059Z,27.00
2019-03-23T21:37:59.475Z,25.67
2019-03-23T21:40:27.883Z,26.00
2019-03-23T21:42:56.286Z,24.63
2019-03-23T21:45:24.854Z,25.97
2019-03-23T21:47:53.267Z,27.07
2019-03-23T21:50:21.673Z,24.80
2019-03-23T21:52:50.173Z,24.10
2019-03-23T21:55:18.552Z,26.37
2019-03-23T21:57:46.992Z,25.27
2019-03-23T22:00:18.465Z,26.47
2019-03-23T22:02:55.690Z,26.27
2019-03-23T22:05:24.087Z,25.90
2019-03-23T22:07:52.483Z,25.33
2019-03-23T22:10:20.931Z,28.77
2019-03-23T22:12:49.391Z,29.10
2019-03-23T22:15:18.122Z,26.60
2019-03-23T22:17:46.521Z,26.47
2019-03-23T22:20:14.918Z,27.93
2019-03-23T22:22:43.314Z,29.83
2019-03-23T22:25:11.823Z,27.83
2019-03-23T22:27:40.213Z,27.93
2019-03-23T22:30:11.160Z,29.87
2019-03-23T22:32:39.554Z,31.50
2019-03-23T22:35:08.586Z,30.30
2019-03-23T22:37:37.045Z,31.03
2019-03-23T22:40:09.553Z,30.17
2019-03-23T22:42:37.959Z,31.43
2019-03-23T22:45:08.173Z,30.73
2019-03-23T22:47:36.849Z,29.27
2019-03-23T22:50:09.122Z,30.13
2019-03-23T22:52:37.599Z,29.43
2019-03-23T22:55:07.043Z,30.37
2019-03-23T22:57:35.443Z,31.30
2019-03-23T23:00:06.464Z,30.27
2019-03-23T23:02:35.156Z,28.93
2019-03-23T23:05:08.774Z,31.03
2019-03-23T23:07:37.170Z,31.47
2019-03-23T23:10:07.630Z,29.07
2019-03-23T23:12:36.058Z,28.53
2019-03-23T23:15:06.489Z,27.77
2019-03-23T23:17:34.897Z,30.33
2019-03-23T23:20:05.614Z,30.20
2019-03-23T23:22:34.009Z,31.73
2019-03-23T23:25:02.891Z,29.50
2019-03-23T23:27:31.386Z,28.37
2019-03-23T23:29:59.814Z,28.63
2019-03-23T23:32:28.206Z,30.83
2019-03-23T23:34:56.597Z,33.33
2019-03-23T23:37:25.010Z,32.23
2019-03-23T23:39:53.402Z,33.87
2019-03-23T23:42:21.810Z,33.03
2019-03-23T23:44:50.202Z,32.03
2019-03-23T23:47:18.602Z,32.77
2019-03-23T23:49:47.019Z,32.30
2019-03-23T23:52:15.414Z,34.13
2019-03-23T23:54:43.801Z,33.50
2019-03-23T23:57:12.237Z,29.40
2019-03-23T23:59:40.636Z,32.83
